Terminal Aerodrome Forecast
Issued by NWS Twin Cities, MN

Home | Current Version | Previous Version | Text Only | Print | Product List | Glossary On
Versions: 1 2 3 4 5 6 7 8 9 10 11 12 13 14 15 16 17
000
FTUS43 KMPX 021737
TAFSTC
TAF
KSTC 021737Z 0218/0318 34012G20KT P6SM BKN045
     FM022100 32016G23KT P6SM BKN050
     FM030100 31010KT P6SM FEW050
     FM030400 30003KT P6SM SKC
     FM031500 31012G18KT P6SM SKC=

USA.gov is the U.S. government's official web portal to all federal, state and local government web resources and services.